sensor_id;sensor_type;location;lat;lon;timestamp;temperature;humidity
2955;DHT22;1487;51.470;6.938;2022-11-20T00:00:39;-2.20;99.90
2955;DHT22;1487;51.470;6.938;2022-11-20T00:03:07;-2.20;99.90
2955;DHT22;1487;51.470;6.938;2022-11-20T00:05:34;-2.30;99.90
2955;DHT22;1487;51.470;6.938;2022-11-20T00:08:01;-2.40;99.90
2955;DHT22;1487;51.470;6.938;2022-11-20T00:10:27;-2.50;99.90
2955;DHT22;1487;51.470;6.938;2022-11-20T00:12:54;-2.50;99.90
2955;DHT22;1487;51.470;6.938;2022-11-20T00:15:21;-2.50;99.90
2955;DHT22;1487;51.470;6.938;2022-11-20T00:17:48;-2.40;99.90
2955;DHT22;1487;51.470;6.938;2022-11-20T00:20:16;-2.40;99.90
2955;DHT22;1487;51.470;6.938;2022-11-20T00:22:43;-2.40;99.90
2955;DHT22;1487;51.470;6.938;2022-11-20T00:25:10;-2.30;99.90
2955;DHT22;1487;51.470;6.938;2022-11-20T00:27:37;-2.30;99.90
2955;DHT22;1487;51.470;6.938;2022-11-20T00:30:04;-2.30;99.90
2955;DHT22;1487;51.470;6.938;2022-11-20T00:32:32;-2.30;99.90
2955;DHT22;1487;51.470;6.938;2022-11-20T00:34:59;-2.40;99.90
2955;DHT22;1487;51.470;6.938;2022-11-20T00:37:27;-2.40;99.90
2955;DHT22;1487;51.470;6.938;2022-11-20T00:39:54;-2.50;99.90
2955;DHT22;1487;51.470;6.938;2022-11-20T00:42:20;-2.50;99.90
2955;DHT22;1487;51.470;6.938;2022-11-20T00:44:47;-2.50;99.90
2955;DHT22;1487;51.470;6.938;2022-11-20T00:47:14;-2.60;99.90
2955;DHT22;1487;51.470;6.938;2022-11-20T00:49:41;-2.60;99.90
2955;DHT22;1487;51.470;6.938;2022-11-20T00:52:08;-2.70;99.90
2955;DHT22;1487;51.470;6.938;2022-11-20T00:54:36;-2.70;99.90
2955;DHT22;1487;51.470;6.938;2022-11-20T00:57:03;-2.80;99.90
2955;DHT22;1487;51.470;6.938;2022-11-20T00:59:30;-2.80;99.90
2955;DHT22;1487;51.470;6.938;2022-11-20T01:01:56;-2.80;99.90
2955;DHT22;1487;51.470;6.938;2022-11-20T01:04:23;-2.80;99.90
2955;DHT22;1487;51.470;6.938;2022-11-20T01:06:50;-2.80;99.90
2955;DHT22;1487;51.470;6.938;2022-11-20T01:09:17;-2.80;99.90
2955;DHT22;1487;51.470;6.938;2022-11-20T01:11:45;-2.70;99.90
2955;DHT22;1487;51.470;6.938;2022-11-20T01:14:15;-2.60;99.90
2955;DHT22;1487;51.470;6.938;2022-11-20T01:16:43;-2.60;99.90
2955;DHT22;1487;51.470;6.938;2022-11-20T01:19:12;-2.50;99.90
2955;DHT22;1487;51.470;6.938;2022-11-20T01:21:41;-2.50;99.90
2955;DHT22;1487;51.470;6.938;2022-11-20T01:24:11;-2.40;99.90
2955;DHT22;1487;51.470;6.938;2022-11-20T01:26:40;-2.40;99.90
2955;DHT22;1487;51.470;6.938;2022-11-20T01:29:13;-2.50;99.90
2955;DHT22;1487;51.470;6.938;2022-11-20T01:31:41;-2.50;99.90
2955;DHT22;1487;51.470;6.938;2022-11-20T01:34:11;-2.50;99.90
2955;DHT22;1487;51.470;6.938;2022-11-20T01:36:40;-2.50;99.90
2955;DHT22;1487;51.470;6.938;2022-11-20T01:39:10;-2.40;99.90
2955;DHT22;1487;51.470;6.938;2022-11-20T01:41:37;-2.30;99.90
2955;DHT22;1487;51.470;6.938;2022-11-20T01:47:45;-2.50;99.90
2955;DHT22;1487;51.470;6.938;2022-11-20T01:50:16;-2.60;99.90
2955;DHT22;1487;51.470;6.938;2022-11-20T01:52:46;-2.60;99.90
2955;DHT22;1487;51.470;6.938;2022-11-20T01:55:19;-2.50;99.90
2955;DHT22;1487;51.470;6.938;2022-11-20T01:57:48;-2.60;99.90
2955;DHT22;1487;51.470;6.938;2022-11-20T02:00:18;-2.60;99.90
2955;DHT22;1487;51.470;6.938;2022-11-20T02:02:48;-2.70;99.90
2955;DHT22;1487;51.470;6.938;2022-11-20T02:05:22;-2.70;99.90
2955;DHT22;1487;51.470;6.938;2022-11-20T02:07:50;-2.80;99.90
2955;DHT22;1487;51.470;6.938;2022-11-20T02:10:17;-2.80;99.90
2955;DHT22;1487;51.470;6.938;2022-11-20T02:12:44;-2.70;99.90
2955;DHT22;1487;51.470;6.938;2022-11-20T02:15:29;-2.70;99.90
2955;DHT22;1487;51.470;6.938;2022-11-20T02:17:57;-2.50;99.90
2955;DHT22;1487;51.470;6.938;2022-11-20T02:20:24;-2.30;99.90
2955;DHT22;1487;51.470;6.938;2022-11-20T02:22:54;-2.20;99.90
2955;DHT22;1487;51.470;6.938;2022-11-20T02:25:24;-2.20;99.90
2955;DHT22;1487;51.470;6.938;2022-11-20T02:27:52;-2.10;99.90
2955;DHT22;1487;51.470;6.938;2022-11-20T02:30:19;-2.00;99.90
2955;DHT22;1487;51.470;6.938;2022-11-20T02:32:46;-1.90;99.90
2955;DHT22;1487;51.470;6.938;2022-11-20T02:35:39;-1.90;99.90
2955;DHT22;1487;51.470;6.938;2022-11-20T02:38:06;-1.80;99.90
2955;DHT22;1487;51.470;6.938;2022-11-20T02:40:34;-1.80;99.90
2955;DHT22;1487;51.470;6.938;2022-11-20T02:43:01;-1.70;99.90
2955;DHT22;1487;51.470;6.938;2022-11-20T02:45:28;-1.60;99.90
2955;DHT22;1487;51.470;6.938;2022-11-20T02:47:54;-1.50;99.90
2955;DHT22;1487;51.470;6.938;2022-11-20T02:50:21;-1.40;99.90
2955;DHT22;1487;51.470;6.938;2022-11-20T02:52:48;-1.30;99.90
2955;DHT22;1487;51.470;6.938;2022-11-20T02:55:15;-1.30;99.90
2955;DHT22;1487;51.470;6.938;2022-11-20T02:57:43;-1.30;99.90
2955;DHT22;1487;51.470;6.938;2022-11-20T03:00:11;-1.30;99.90
2955;DHT22;1487;51.470;6.938;2022-11-20T03:02:38;-1.40;99.90
2955;DHT22;1487;51.470;6.938;2022-11-20T03:05:05;-1.30;99.90
2955;DHT22;1487;51.470;6.938;2022-11-20T03:07:32;-1.30;99.90
2955;DHT22;1487;51.470;6.938;2022-11-20T03:09:59;-1.20;99.90
2955;DHT22;1487;51.470;6.938;2022-11-20T03:12:26;-1.10;99.90
2955;DHT22;1487;51.470;6.938;2022-11-20T03:14:54;-1.10;99.90
2955;DHT22;1487;51.470;6.938;2022-11-20T03:17:21;-1.00;99.90
2955;DHT22;1487;51.470;6.938;2022-11-20T03:19:47;-1.00;99.90
2955;DHT22;1487;51.470;6.938;2022-11-20T03:22:14;-1.00;99.90
2955;DHT22;1487;51.470;6.938;2022-11-20T03:24:41;-0.90;99.90
2955;DHT22;1487;51.470;6.938;2022-11-20T03:27:08;-1.00;99.90
2955;DHT22;1487;51.470;6.938;2022-11-20T03:29:35;-1.00;99.90
2955;DHT22;1487;51.470;6.938;2022-11-20T03:32:03;-1.00;99.90
2955;DHT22;1487;51.470;6.938;2022-11-20T03:34:30;-1.00;99.90
2955;DHT22;1487;51.470;6.938;2022-11-20T03:36:57;-0.90;99.90
2955;DHT22;1487;51.470;6.938;2022-11-20T03:39:23;-0.90;99.90
2955;DHT22;1487;51.470;6.938;2022-11-20T03:41:50;-0.90;99.90
2955;DHT22;1487;51.470;6.938;2022-11-20T03:44:17;-0.80;99.90
2955;DHT22;1487;51.470;6.938;2022-11-20T03:46:47;-0.80;99.90
2955;DHT22;1487;51.470;6.938;2022-11-20T03:49:15;-0.90;99.90
2955;DHT22;1487;51.470;6.938;2022-11-20T03:51:42;-0.80;99.90
2955;DHT22;1487;51.470;6.938;2022-11-20T03:54:09;-0.80;99.90
2955;DHT22;1487;51.470;6.938;2022-11-20T03:56:37;-0.80;99.90
2955;DHT22;1487;51.470;6.938;2022-11-20T03:59:04;-0.80;99.90
2955;DHT22;1487;51.470;6.938;2022-11-20T04:01:33;-0.90;99.90
2955;DHT22;1487;51.470;6.938;2022-11-20T04:04:00;-0.80;99.90
2955;DHT22;1487;51.470;6.938;2022-11-20T04:06:32;-0.70;99.90
2955;DHT22;1487;51.470;6.938;2022-11-20T04:08:59;-0.80;99.90
2955;DHT22;1487;51.470;6.938;2022-11-20T04:11:28;-0.80;99.90
2955;DHT22;1487;51.470;6.938;2022-11-20T04:13:56;-0.70;99.90
2955;DHT22;1487;51.470;6.938;2022-11-20T04:16:25;-0.60;99.90
2955;DHT22;1487;51.470;6.938;2022-11-20T04:18:52;-0.60;99.90
2955;DHT22;1487;51.470;6.938;2022-11-20T04:21:20;-0.60;99.90
2955;DHT22;1487;51.470;6.938;2022-11-20T04:23:48;-0.70;99.90
2955;DHT22;1487;51.470;6.938;2022-11-20T04:26:15;-0.70;99.90
2955;DHT22;1487;51.470;6.938;2022-11-20T04:28:42;-0.70;99.90
2955;DHT22;1487;51.470;6.938;2022-11-20T04:31:12;-0.60;99.90
2955;DHT22;1487;51.470;6.938;2022-11-20T04:33:40;-0.50;99.90
2955;DHT22;1487;51.470;6.938;2022-11-20T04:36:10;-0.40;99.90
2955;DHT22;1487;51.470;6.938;2022-11-20T04:38:37;-0.40;99.90
2955;DHT22;1487;51.470;6.938;2022-11-20T04:41:06;-0.40;99.90
2955;DHT22;1487;51.470;6.938;2022-11-20T04:43:34;-0.50;99.90
2955;DHT22;1487;51.470;6.938;2022-11-20T04:46:01;-0.60;99.90
2955;DHT22;1487;51.470;6.938;2022-11-20T04:48:29;-0.70;99.90
2955;DHT22;1487;51.470;6.938;2022-11-20T04:50:56;-0.80;99.90
2955;DHT22;1487;51.470;6.938;2022-11-20T04:53:23;-0.80;99.90
2955;DHT22;1487;51.470;6.938;2022-11-20T04:55:50;-0.90;99.90
2955;DHT22;1487;51.470;6.938;2022-11-20T04:58:18;-0.90;99.90
2955;DHT22;1487;51.470;6.938;2022-11-20T05:00:45;-0.90;99.90
2955;DHT22;1487;51.470;6.938;2022-11-20T05:03:12;-0.80;99.90
2955;DHT22;1487;51.470;6.938;2022-11-20T05:05:38;-0.80;99.90
2955;DHT22;1487;51.470;6.938;2022-11-20T05:08:05;-0.70;99.90
2955;DHT22;1487;51.470;6.938;2022-11-20T05:10:32;-0.70;99.90
2955;DHT22;1487;51.470;6.938;2022-11-20T05:12:59;-0.60;99.90
2955;DHT22;1487;51.470;6.938;2022-11-20T05:15:27;-0.50;99.90
2955;DHT22;1487;51.470;6.938;2022-11-20T05:17:54;-0.50;99.90
2955;DHT22;1487;51.470;6.938;2022-11-20T05:20:20;-0.40;99.90
2955;DHT22;1487;51.470;6.938;2022-11-20T05:22:47;-0.40;99.90
2955;DHT22;1487;51.470;6.938;2022-11-20T05:25:14;-0.40;99.90
2955;DHT22;1487;51.470;6.938;2022-11-20T05:27:41;-0.40;99.90
2955;DHT22;1487;51.470;6.938;2022-11-20T05:30:09;-0.40;99.90
2955;DHT22;1487;51.470;6.938;2022-11-20T05:32:37;-0.40;99.90
2955;DHT22;1487;51.470;6.938;2022-11-20T05:35:05;-0.30;99.90
2955;DHT22;1487;51.470;6.938;2022-11-20T05:37:32;-0.30;99.90
2955;DHT22;1487;51.470;6.938;2022-11-20T05:39:59;-0.30;99.90
2955;DHT22;1487;51.470;6.938;2022-11-20T05:42:25;-0.30;99.90
2955;DHT22;1487;51.470;6.938;2022-11-20T05:44:58;-0.20;99.90
2955;DHT22;1487;51.470;6.938;2022-11-20T05:47:26;-0.20;99.90
2955;DHT22;1487;51.470;6.938;2022-11-20T05:49:54;-0.10;99.90
2955;DHT22;1487;51.470;6.938;2022-11-20T05:52:21;-0.10;99.90
2955;DHT22;1487;51.470;6.938;2022-11-20T05:54:47;0.00;99.90
2955;DHT22;1487;51.470;6.938;2022-11-20T05:57:14;0.00;99.90
2955;DHT22;1487;51.470;6.938;2022-11-20T05:59:41;0.00;99.90
2955;DHT22;1487;51.470;6.938;2022-11-20T06:02:08;0.00;99.90
2955;DHT22;1487;51.470;6.938;2022-11-20T06:04:35;0.00;99.90
2955;DHT22;1487;51.470;6.938;2022-11-20T06:07:04;-0.10;99.90
2955;DHT22;1487;51.470;6.938;2022-11-20T06:09:31;0.00;99.90
2955;DHT22;1487;51.470;6.938;2022-11-20T06:11:58;0.00;99.90
2955;DHT22;1487;51.470;6.938;2022-11-20T06:14:25;0.00;99.90
2955;DHT22;1487;51.470;6.938;2022-11-20T06:16:52;0.00;99.90
2955;DHT22;1487;51.470;6.938;2022-11-20T06:19:18;-0.10;99.90
2955;DHT22;1487;51.470;6.938;2022-11-20T06:21:47;-0.10;99.90
2955;DHT22;1487;51.470;6.938;2022-11-20T06:24:15;-0.10;99.90
2955;DHT22;1487;51.470;6.938;2022-11-20T06:26:43;-0.10;99.90
2955;DHT22;1487;51.470;6.938;2022-11-20T06:29:10;-0.10;99.90
2955;DHT22;1487;51.470;6.938;2022-11-20T06:31:37;-0.10;99.90
2955;DHT22;1487;51.470;6.938;2022-11-20T06:34:04;0.00;99.90
2955;DHT22;1487;51.470;6.938;2022-11-20T06:36:32;0.00;99.90
2955;DHT22;1487;51.470;6.938;2022-11-20T06:38:59;-0.10;99.90
2955;DHT22;1487;51.470;6.938;2022-11-20T06:41:27;-0.10;99.90
2955;DHT22;1487;51.470;6.938;2022-11-20T06:43:54;-0.10;99.90
2955;DHT22;1487;51.470;6.938;2022-11-20T06:46:21;-0.20;99.90
2955;DHT22;1487;51.470;6.938;2022-11-20T06:48:49;-0.20;99.90
2955;DHT22;1487;51.470;6.938;2022-11-20T06:51:16;-0.20;99.90
2955;DHT22;1487;51.470;6.938;2022-11-20T06:53:43;-0.30;99.90
2955;DHT22;1487;51.470;6.938;2022-11-20T06:56:10;-0.40;99.90
2955;DHT22;1487;51.470;6.938;2022-11-20T06:58:38;-0.40;99.90
2955;DHT22;1487;51.470;6.938;2022-11-20T07:01:07;-0.50;99.90
2955;DHT22;1487;51.470;6.938;2022-11-20T07:03:34;-0.50;99.90
2955;DHT22;1487;51.470;6.938;2022-11-20T07:06:01;-0.50;99.90
2955;DHT22;1487;51.470;6.938;2022-11-20T07:08:29;-0.60;99.90
2955;DHT22;1487;51.470;6.938;2022-11-20T07:10:57;-0.50;99.90
2955;DHT22;1487;51.470;6.938;2022-11-20T07:13:25;-0.50;99.90
2955;DHT22;1487;51.470;6.938;2022-11-20T07:15:53;-0.50;99.90
2955;DHT22;1487;51.470;6.938;2022-11-20T07:18:20;-0.50;99.90
2955;DHT22;1487;51.470;6.938;2022-11-20T07:20:47;-0.40;99.90
2955;DHT22;1487;51.470;6.938;2022-11-20T07:23:13;-0.30;99.90
2955;DHT22;1487;51.470;6.938;2022-11-20T07:25:40;-0.20;99.90
2955;DHT22;1487;51.470;6.938;2022-11-20T07:28:07;0.00;99.90
2955;DHT22;1487;51.470;6.938;2022-11-20T07:30:36;0.00;99.90
2955;DHT22;1487;51.470;6.938;2022-11-20T07:33:04;0.10;99.90
2955;DHT22;1487;51.470;6.938;2022-11-20T07:35:31;0.20;99.90
2955;DHT22;1487;51.470;6.938;2022-11-20T07:37:58;0.30;99.90
2955;DHT22;1487;51.470;6.938;2022-11-20T07:40:25;0.40;99.90
2955;DHT22;1487;51.470;6.938;2022-11-20T07:42:53;0.50;99.90
2955;DHT22;1487;51.470;6.938;2022-11-20T07:45:21;0.60;99.90
2955;DHT22;1487;51.470;6.938;2022-11-20T07:47:48;0.70;99.90
2955;DHT22;1487;51.470;6.938;2022-11-20T07:50:17;0.80;99.90
2955;DHT22;1487;51.470;6.938;2022-11-20T07:52:44;0.80;99.90
2955;DHT22;1487;51.470;6.938;2022-11-20T07:55:11;0.90;99.90
2955;DHT22;1487;51.470;6.938;2022-11-20T07:57:38;1.00;99.90
2955;DHT22;1487;51.470;6.938;2022-11-20T08:00:08;1.10;99.90
2955;DHT22;1487;51.470;6.938;2022-11-20T08:02:36;1.00;99.90
2955;DHT22;1487;51.470;6.938;2022-11-20T08:05:05;1.10;99.90
2955;DHT22;1487;51.470;6.938;2022-11-20T08:07:36;1.50;99.90
2955;DHT22;1487;51.470;6.938;2022-11-20T08:10:04;1.90;99.90
2955;DHT22;1487;51.470;6.938;2022-11-20T08:12:31;2.50;99.90
2955;DHT22;1487;51.470;6.938;2022-11-20T08:15:16;3.30;99.90
2955;DHT22;1487;51.470;6.938;2022-11-20T08:17:43;4.40;99.90
2955;DHT22;1487;51.470;6.938;2022-11-20T08:20:10;5.30;99.90
2955;DHT22;1487;51.470;6.938;2022-11-20T08:22:38;5.60;99.90
2955;DHT22;1487;51.470;6.938;2022-11-20T08:25:06;5.60;99.90
2955;DHT22;1487;51.470;6.938;2022-11-20T08:27:33;5.50;99.90
2955;DHT22;1487;51.470;6.938;2022-11-20T08:29:59;5.40;99.90
2955;DHT22;1487;51.470;6.938;2022-11-20T08:32:26;5.50;99.90
2955;DHT22;1487;51.470;6.938;2022-11-20T08:34:53;5.80;99.90
2955;DHT22;1487;51.470;6.938;2022-11-20T08:37:20;6.10;99.90
2955;DHT22;1487;51.470;6.938;2022-11-20T08:39:48;6.10;99.90
2955;DHT22;1487;51.470;6.938;2022-11-20T08:42:15;6.00;99.90
2955;DHT22;1487;51.470;6.938;2022-11-20T08:44:41;5.70;99.90
2955;DHT22;1487;51.470;6.938;2022-11-20T08:47:08;5.40;99.90
2955;DHT22;1487;51.470;6.938;2022-11-20T08:49:35;5.20;99.90
2955;DHT22;1487;51.470;6.938;2022-11-20T08:52:02;5.00;99.90
2955;DHT22;1487;51.470;6.938;2022-11-20T08:54:29;4.80;99.90
2955;DHT22;1487;51.470;6.938;2022-11-20T08:56:57;4.70;99.90
2955;DHT22;1487;51.470;6.938;2022-11-20T08:59:23;4.70;99.90
2955;DHT22;1487;51.470;6.938;2022-11-20T09:01:50;4.60;99.90
2955;DHT22;1487;51.470;6.938;2022-11-20T09:04:17;4.60;99.90
2955;DHT22;1487;51.470;6.938;2022-11-20T09:06:44;4.60;99.90
2955;DHT22;1487;51.470;6.938;2022-11-20T09:09:11;4.40;99.90
2955;DHT22;1487;51.470;6.938;2022-11-20T09:11:37;4.40;99.90
2955;DHT22;1487;51.470;6.938;2022-11-20T09:14:06;4.40;99.90
2955;DHT22;1487;51.470;6.938;2022-11-20T09:16:33;4.40;99.90
2955;DHT22;1487;51.470;6.938;2022-11-20T09:18:59;4.50;99.90
2955;DHT22;1487;51.470;6.938;2022-11-20T09:21:26;4.50;99.90
2955;DHT22;1487;51.470;6.938;2022-11-20T09:23:53;4.60;99.90
2955;DHT22;1487;51.470;6.938;2022-11-20T09:26:20;4.80;99.90
2955;DHT22;1487;51.470;6.938;2022-11-20T09:28:47;5.00;99.90
2955;DHT22;1487;51.470;6.938;2022-11-20T09:31:21;5.30;99.90
2955;DHT22;1487;51.470;6.938;2022-11-20T09:33:48;5.90;99.90
2955;DHT22;1487;51.470;6.938;2022-11-20T09:36:15;6.30;99.90
2955;DHT22;1487;51.470;6.938;2022-11-20T09:38:43;6.40;99.90
2955;DHT22;1487;51.470;6.938;2022-11-20T09:41:26;6.50;99.90
2955;DHT22;1487;51.470;6.938;2022-11-20T09:43:59;6.50;99.90
2955;DHT22;1487;51.470;6.938;2022-11-20T09:46:34;6.50;99.90
2955;DHT22;1487;51.470;6.938;2022-11-20T09:49:18;6.60;99.90
2955;DHT22;1487;51.470;6.938;2022-11-20T09:51:56;6.80;99.90
2955;DHT22;1487;51.470;6.938;2022-11-20T09:54:27;7.00;99.90
2955;DHT22;1487;51.470;6.938;2022-11-20T09:56:59;7.10;99.90
2955;DHT22;1487;51.470;6.938;2022-11-20T09:59:35;7.50;99.90
2955;DHT22;1487;51.470;6.938;2022-11-20T10:02:15;7.80;99.90
2955;DHT22;1487;51.470;6.938;2022-11-20T10:04:45;7.50;99.90
2955;DHT22;1487;51.470;6.938;2022-11-20T10:07:17;7.20;99.90
2955;DHT22;1487;51.470;6.938;2022-11-20T10:09:51;6.70;99.90
2955;DHT22;1487;51.470;6.938;2022-11-20T10:12:23;6.50;99.90
2955;DHT22;1487;51.470;6.938;2022-11-20T10:15:23;6.40;99.90
2955;DHT22;1487;51.470;6.938;2022-11-20T10:18:04;6.50;99.90
2955;DHT22;1487;51.470;6.938;2022-11-20T10:20:43;6.40;99.90
2955;DHT22;1487;51.470;6.938;2022-11-20T10:23:28;6.50;99.90
2955;DHT22;1487;51.470;6.938;2022-11-20T10:26:01;6.50;99.90
2955;DHT22;1487;51.470;6.938;2022-11-20T10:28:46;6.40;99.90
2955;DHT22;1487;51.470;6.938;2022-11-20T10:31:23;6.30;99.90
2955;DHT22;1487;51.470;6.938;2022-11-20T10:33:54;6.20;99.90
2955;DHT22;1487;51.470;6.938;2022-11-20T10:36:25;6.10;99.90
2955;DHT22;1487;51.470;6.938;2022-11-20T10:38:56;6.20;99.90
2955;DHT22;1487;51.470;6.938;2022-11-20T10:41:27;6.20;99.90
2955;DHT22;1487;51.470;6.938;2022-11-20T10:44:02;6.40;99.90
2955;DHT22;1487;51.470;6.938;2022-11-20T10:46:36;6.40;99.90
2955;DHT22;1487;51.470;6.938;2022-11-20T10:49:12;6.60;99.90
2955;DHT22;1487;51.470;6.938;2022-11-20T10:51:52;6.70;99.90
2955;DHT22;1487;51.470;6.938;2022-11-20T10:54:29;6.70;99.90
2955;DHT22;1487;51.470;6.938;2022-11-20T10:57:02;6.30;99.90
2955;DHT22;1487;51.470;6.938;2022-11-20T10:59:49;6.00;99.90
2955;DHT22;1487;51.470;6.938;2022-11-20T11:02:20;5.80;99.90
2955;DHT22;1487;51.470;6.938;2022-11-20T11:04:50;5.70;99.90
2955;DHT22;1487;51.470;6.938;2022-11-20T11:07:20;5.60;99.90
2955;DHT22;1487;51.470;6.938;2022-11-20T11:09:49;5.60;99.90
2955;DHT22;1487;51.470;6.938;2022-11-20T11:12:16;5.70;99.90
2955;DHT22;1487;51.470;6.938;2022-11-20T11:14:46;5.90;99.90
2955;DHT22;1487;51.470;6.938;2022-11-20T11:17:27;5.90;99.90
2955;DHT22;1487;51.470;6.938;2022-11-20T11:20:14;5.90;99.90
2955;DHT22;1487;51.470;6.938;2022-11-20T11:22:44;6.00;99.90
2955;DHT22;1487;51.470;6.938;2022-11-20T11:25:23;6.10;99.90
2955;DHT22;1487;51.470;6.938;2022-11-20T11:27:51;6.30;99.90
2955;DHT22;1487;51.470;6.938;2022-11-20T11:30:20;6.40;99.90
2955;DHT22;1487;51.470;6.938;2022-11-20T11:32:47;6.40;99.90
2955;DHT22;1487;51.470;6.938;2022-11-20T11:35:27;6.30;99.90
2955;DHT22;1487;51.470;6.938;2022-11-20T11:38:03;6.10;99.90
2955;DHT22;1487;51.470;6.938;2022-11-20T11:40:32;6.00;99.90
2955;DHT22;1487;51.470;6.938;2022-11-20T11:43:02;6.00;99.90
2955;DHT22;1487;51.470;6.938;2022-11-20T11:45:29;5.90;99.90
2955;DHT22;1487;51.470;6.938;2022-11-20T11:47:57;5.80;99.90
2955;DHT22;1487;51.470;6.938;2022-11-20T11:50:27;5.80;99.90
2955;DHT22;1487;51.470;6.938;2022-11-20T11:53:00;5.80;99.90
2955;DHT22;1487;51.470;6.938;2022-11-20T11:55:31;5.90;99.90
2955;DHT22;1487;51.470;6.938;2022-11-20T11:58:09;5.90;99.90
2955;DHT22;1487;51.470;6.938;2022-11-20T12:00:40;5.90;99.90
2955;DHT22;1487;51.470;6.938;2022-11-20T12:03:14;6.00;99.90
2955;DHT22;1487;51.470;6.938;2022-11-20T12:05:45;5.90;99.90
2955;DHT22;1487;51.470;6.938;2022-11-20T12:08:18;5.90;99.90
2955;DHT22;1487;51.470;6.938;2022-11-20T12:10:50;5.80;99.90
2955;DHT22;1487;51.470;6.938;2022-11-20T12:13:34;5.70;99.90
2955;DHT22;1487;51.470;6.938;2022-11-20T12:16:04;5.60;99.90
2955;DHT22;1487;51.470;6.938;2022-11-20T12:18:31;5.60;99.90
2955;DHT22;1487;51.470;6.938;2022-11-20T12:21:12;5.60;99.90
2955;DHT22;1487;51.470;6.938;2022-11-20T12:23:51;5.50;99.90
2955;DHT22;1487;51.470;6.938;2022-11-20T12:26:39;5.40;99.90
2955;DHT22;1487;51.470;6.938;2022-11-20T12:29:14;5.30;99.90
2955;DHT22;1487;51.470;6.938;2022-11-20T12:32:05;5.30;99.90
2955;DHT22;1487;51.470;6.938;2022-11-20T12:34:44;5.30;99.90
2955;DHT22;1487;51.470;6.938;2022-11-20T12:37:26;5.30;99.90
2955;DHT22;1487;51.470;6.938;2022-11-20T12:40:00;5.30;99.90
2955;DHT22;1487;51.470;6.938;2022-11-20T12:42:50;5.20;99.90
2955;DHT22;1487;51.470;6.938;2022-11-20T12:46:18;5.20;99.90
2955;DHT22;1487;51.470;6.938;2022-11-20T12:48:58;5.10;99.90
2955;DHT22;1487;51.470;6.938;2022-11-20T12:51:37;5.10;99.90
2955;DHT22;1487;51.470;6.938;2022-11-20T12:54:31;5.00;99.90
2955;DHT22;1487;51.470;6.938;2022-11-20T12:57:06;5.10;99.90
2955;DHT22;1487;51.470;6.938;2022-11-20T12:59:53;5.20;99.90
2955;DHT22;1487;51.470;6.938;2022-11-20T13:02:27;5.20;99.90
2955;DHT22;1487;51.470;6.938;2022-11-20T13:05:18;5.00;99.90
2955;DHT22;1487;51.470;6.938;2022-11-20T13:07:46;5.00;99.90
2955;DHT22;1487;51.470;6.938;2022-11-20T13:10:20;5.10;99.90
2955;DHT22;1487;51.470;6.938;2022-11-20T13:12:51;5.10;99.90
2955;DHT22;1487;51.470;6.938;2022-11-20T13:15:32;5.20;99.90
2955;DHT22;1487;51.470;6.938;2022-11-20T13:18:01;5.10;99.90
2955;DHT22;1487;51.470;6.938;2022-11-20T13:20:36;5.10;99.90
2955;DHT22;1487;51.470;6.938;2022-11-20T13:23:07;5.10;99.90
2955;DHT22;1487;51.470;6.938;2022-11-20T13:25:37;5.10;99.90
2955;DHT22;1487;51.470;6.938;2022-11-20T13:28:25;5.10;99.90
2955;DHT22;1487;51.470;6.938;2022-11-20T13:30:53;5.10;99.90
2955;DHT22;1487;51.470;6.938;2022-11-20T13:33:27;5.20;99.90
2955;DHT22;1487;51.470;6.938;2022-11-20T13:35:56;5.20;99.90
2955;DHT22;1487;51.470;6.938;2022-11-20T13:38:24;5.20;99.90
2955;DHT22;1487;51.470;6.938;2022-11-20T13:40:54;5.20;99.90
2955;DHT22;1487;51.470;6.938;2022-11-20T13:43:34;5.20;99.90
2955;DHT22;1487;51.470;6.938;2022-11-20T13:46:02;5.20;99.90
2955;DHT22;1487;51.470;6.938;2022-11-20T13:48:32;5.10;99.90
2955;DHT22;1487;51.470;6.938;2022-11-20T13:51:11;5.00;99.90
2955;DHT22;1487;51.470;6.938;2022-11-20T13:53:58;5.00;99.90
2955;DHT22;1487;51.470;6.938;2022-11-20T13:56:37;5.00;99.90
2955;DHT22;1487;51.470;6.938;2022-11-20T13:59:12;4.90;99.90
2955;DHT22;1487;51.470;6.938;2022-11-20T14:01:45;4.90;99.90
2955;DHT22;1487;51.470;6.938;2022-11-20T14:04:14;4.80;99.90
2955;DHT22;1487;51.470;6.938;2022-11-20T14:06:43;4.80;99.90
2955;DHT22;1487;51.470;6.938;2022-11-20T14:09:12;4.90;99.90
2955;DHT22;1487;51.470;6.938;2022-11-20T14:11:47;4.90;99.90
2955;DHT22;1487;51.470;6.938;2022-11-20T14:14:17;4.90;99.90
2955;DHT22;1487;51.470;6.938;2022-11-20T14:16:45;4.80;99.90
2955;DHT22;1487;51.470;6.938;2022-11-20T14:19:26;4.80;99.90
2955;DHT22;1487;51.470;6.938;2022-11-20T14:21:54;4.70;99.90
2955;DHT22;1487;51.470;6.938;2022-11-20T14:24:23;4.70;99.90
2955;DHT22;1487;51.470;6.938;2022-11-20T14:26:52;4.70;99.90
2955;DHT22;1487;51.470;6.938;2022-11-20T14:29:21;4.70;99.90
2955;DHT22;1487;51.470;6.938;2022-11-20T14:31:51;4.70;99.90
2955;DHT22;1487;51.470;6.938;2022-11-20T14:34:21;4.70;99.90
2955;DHT22;1487;51.470;6.938;2022-11-20T14:36:48;4.60;99.90
2955;DHT22;1487;51.470;6.938;2022-11-20T14:39:20;4.60;99.90
2955;DHT22;1487;51.470;6.938;2022-11-20T14:41:52;4.60;99.90
2955;DHT22;1487;51.470;6.938;2022-11-20T14:44:23;4.70;99.90
2955;DHT22;1487;51.470;6.938;2022-11-20T14:46:52;4.70;99.90
2955;DHT22;1487;51.470;6.938;2022-11-20T14:49:20;4.70;99.90
2955;DHT22;1487;51.470;6.938;2022-11-20T14:51:58;4.70;99.90
2955;DHT22;1487;51.470;6.938;2022-11-20T14:54:25;4.70;99.90
2955;DHT22;1487;51.470;6.938;2022-11-20T14:56:55;4.70;99.90
2955;DHT22;1487;51.470;6.938;2022-11-20T14:59:23;4.70;99.90
2955;DHT22;1487;51.470;6.938;2022-11-20T15:01:55;4.70;99.90
2955;DHT22;1487;51.470;6.938;2022-11-20T15:04:23;4.60;99.90
2955;DHT22;1487;51.470;6.938;2022-11-20T15:06:51;4.60;99.90
2955;DHT22;1487;51.470;6.938;2022-11-20T15:09:18;4.50;99.90
2955;DHT22;1487;51.470;6.938;2022-11-20T15:11:53;4.60;99.90
2955;DHT22;1487;51.470;6.938;2022-11-20T15:14:22;4.50;99.90
2955;DHT22;1487;51.470;6.938;2022-11-20T15:16:50;4.50;99.90
2955;DHT22;1487;51.470;6.938;2022-11-20T15:19:19;4.50;99.90
2955;DHT22;1487;51.470;6.938;2022-11-20T15:21:46;4.50;99.90
2955;DHT22;1487;51.470;6.938;2022-11-20T15:24:13;4.50;99.90
2955;DHT22;1487;51.470;6.938;2022-11-20T15:26:40;4.40;99.90
2955;DHT22;1487;51.470;6.938;2022-11-20T15:29:09;4.40;99.90
2955;DHT22;1487;51.470;6.938;2022-11-20T15:31:38;4.40;99.90
2955;DHT22;1487;51.470;6.938;2022-11-20T15:34:09;4.40;99.90
2955;DHT22;1487;51.470;6.938;2022-11-20T15:36:36;4.40;99.90
2955;DHT22;1487;51.470;6.938;2022-11-20T15:39:03;4.40;99.90
2955;DHT22;1487;51.470;6.938;2022-11-20T15:41:32;4.40;99.90
2955;DHT22;1487;51.470;6.938;2022-11-20T15:43:59;4.30;99.90
2955;DHT22;1487;51.470;6.938;2022-11-20T15:46:27;4.30;99.90
2955;DHT22;1487;51.470;6.938;2022-11-20T15:48:56;4.20;99.90
2955;DHT22;1487;51.470;6.938;2022-11-20T15:51:27;4.30;99.90
2955;DHT22;1487;51.470;6.938;2022-11-20T15:53:54;4.30;99.90
2955;DHT22;1487;51.470;6.938;2022-11-20T15:56:21;4.30;99.90
2955;DHT22;1487;51.470;6.938;2022-11-20T15:58:48;4.30;99.90
2955;DHT22;1487;51.470;6.938;2022-11-20T16:01:17;4.20;99.90
2955;DHT22;1487;51.470;6.938;2022-11-20T16:03:45;4.20;99.90
2955;DHT22;1487;51.470;6.938;2022-11-20T16:06:13;4.30;99.90
2955;DHT22;1487;51.470;6.938;2022-11-20T16:08:41;4.20;99.90
2955;DHT22;1487;51.470;6.938;2022-11-20T16:11:10;4.20;99.90
2955;DHT22;1487;51.470;6.938;2022-11-20T16:13:38;4.20;99.90
2955;DHT22;1487;51.470;6.938;2022-11-20T16:16:21;4.30;99.90
2955;DHT22;1487;51.470;6.938;2022-11-20T16:18:49;4.30;99.90
2955;DHT22;1487;51.470;6.938;2022-11-20T16:21:17;4.30;99.90
2955;DHT22;1487;51.470;6.938;2022-11-20T16:23:44;4.30;99.90
2955;DHT22;1487;51.470;6.938;2022-11-20T16:26:13;4.20;99.90
2955;DHT22;1487;51.470;6.938;2022-11-20T16:28:41;4.30;99.90
2955;DHT22;1487;51.470;6.938;2022-11-20T16:31:09;4.30;99.90
2955;DHT22;1487;51.470;6.938;2022-11-20T16:33:36;4.30;99.90